createdAt,value
2023-04-07T00:01:54.603Z,10.32
2023-04-07T00:04:21.334Z,11.18
2023-04-07T00:06:47.955Z,6.47
2023-04-07T00:09:14.530Z,8.48
2023-04-07T00:11:41.513Z,10.75
2023-04-07T00:14:08.123Z,9.98
2023-04-07T00:16:34.645Z,9.57
2023-04-07T00:19:01.400Z,10.15
2023-04-07T00:21:28.061Z,10.18
2023-04-07T00:23:54.836Z,10.43
2023-04-07T00:26:21.818Z,7.30
2023-04-07T00:28:48.369Z,9.45
2023-04-07T00:31:15.001Z,9.30
2023-04-07T00:33:41.544Z,10.02
2023-04-07T00:36:08.259Z,11.45
2023-04-07T00:38:34.847Z,11.57
2023-04-07T00:41:01.877Z,12.57
2023-04-07T00:43:28.417Z,8.90
2023-04-07T00:45:55.321Z,11.98
2023-04-07T00:48:22.325Z,12.35
2023-04-07T00:50:48.969Z,9.35
2023-04-07T00:53:16.302Z,12.73
2023-04-07T00:55:43.241Z,12.32
2023-04-07T00:58:09.776Z,15.20
2023-04-07T01:00:45.621Z,10.50
2023-04-07T01:03:31.330Z,9.63
2023-04-07T01:06:02.505Z,11.02
2023-04-07T01:08:54.566Z,9.98
2023-04-07T01:11:48.503Z,13.05
2023-04-07T01:14:17.180Z,11.63
2023-04-07T01:16:50.585Z,12.60
2023-04-07T01:19:38.098Z,13.35
2023-04-07T01:22:11.004Z,9.38
2023-04-07T01:25:05.806Z,8.93
2023-04-07T01:27:53.641Z,11.80
2023-04-07T01:30:22.679Z,10.30
2023-04-07T01:32:52.070Z,11.82
2023-04-07T01:35:19.575Z,13.18
2023-04-07T01:37:48.975Z,10.35
2023-04-07T01:40:16.699Z,9.35
2023-04-07T01:42:44.753Z,14.93
2023-04-07T01:45:11.734Z,12.25
2023-04-07T01:47:39.368Z,11.20
2023-04-07T01:50:09.258Z,15.02
2023-04-07T01:52:36.997Z,13.65
2023-04-07T01:55:07.694Z,15.75
2023-04-07T01:57:34.215Z,13.70
2023-04-07T02:00:01.010Z,12.50
2023-04-07T02:02:28.562Z,13.65
2023-04-07T02:05:05.871Z,16.35
2023-04-07T02:07:55.804Z,16.42
2023-04-07T02:10:25.637Z,14.38
2023-04-07T02:12:52.703Z,16.33
2023-04-07T02:15:19.697Z,18.45
2023-04-07T02:17:49.985Z,18.10
2023-04-07T02:20:17.848Z,15.13
2023-04-07T02:22:44.869Z,13.35
2023-04-07T02:25:31.702Z,19.70
2023-04-07T02:27:59.484Z,14.95
2023-04-07T02:30:26.789Z,13.27
2023-04-07T02:32:53.830Z,17.92
2023-04-07T02:35:21.193Z,14.75
2023-04-07T02:37:47.848Z,15.50
2023-04-07T02:40:14.580Z,23.15
2023-04-07T02:42:41.415Z,20.50
2023-04-07T02:45:09.199Z,18.63
2023-04-07T02:47:36.665Z,18.50
2023-04-07T02:50:04.186Z,17.92
2023-04-07T02:52:30.859Z,22.58
2023-04-07T02:54:57.460Z,24.65
2023-04-07T02:57:24.032Z,22.90
2023-04-07T02:59:50.557Z,19.92
2023-04-07T03:02:17.244Z,20.90
2023-04-07T03:04:43.883Z,20.00
2023-04-07T03:07:10.638Z,21.13
2023-04-07T03:09:37.228Z,20.77
2023-04-07T03:12:03.907Z,22.85
2023-04-07T03:14:30.443Z,20.77
2023-04-07T03:16:57.438Z,21.73
2023-04-07T03:19:24.012Z,19.20
2023-04-07T03:21:50.560Z,17.38
2023-04-07T03:24:17.476Z,16.10
2023-04-07T03:26:44.176Z,19.02
2023-04-07T03:29:10.742Z,17.23
2023-04-07T03:31:37.819Z,19.27
2023-04-07T03:34:04.872Z,20.13
2023-04-07T03:36:34.523Z,16.52
2023-04-07T03:39:01.074Z,16.75
2023-04-07T03:41:27.572Z,16.23
2023-04-07T03:43:54.353Z,18.10
2023-04-07T03:46:21.562Z,16.65
2023-04-07T03:48:48.308Z,20.25
2023-04-07T03:51:15.495Z,11.95
2023-04-07T03:53:42.082Z,16.88
2023-04-07T03:56:08.709Z,14.30
2023-04-07T03:58:35.442Z,14.48
2023-04-07T04:01:02.010Z,16.70
2023-04-07T04:03:28.601Z,18.35
2023-04-07T04:05:55.268Z,18.15
2023-04-07T04:08:21.811Z,11.27
2023-04-07T04:10:48.414Z,15.70
2023-04-07T04:13:14.948Z,18.38
2023-04-07T04:15:41.566Z,13.25
2023-04-07T04:18:08.829Z,17.77
2023-04-07T04:20:35.484Z,14.52
2023-04-07T04:23:02.416Z,15.07
2023-04-07T04:25:28.979Z,13.90
2023-04-07T04:27:56.070Z,19.85
2023-04-07T04:30:22.652Z,16.52
2023-04-07T04:32:49.864Z,17.77
2023-04-07T04:35:16.621Z,17.25
2023-04-07T04:37:43.162Z,10.43
2023-04-07T04:40:10.495Z,13.60
2023-04-07T04:42:37.078Z,22.33
2023-04-07T04:45:04.023Z,21.77
2023-04-07T04:47:30.816Z,14.40
2023-04-07T04:49:57.477Z,16.38
2023-04-07T04:52:24.041Z,18.55
2023-04-07T04:54:50.650Z,18.38
2023-04-07T04:57:17.178Z,14.02
2023-04-07T04:59:43.717Z,19.05
2023-04-07T05:02:10.473Z,11.43
2023-04-07T05:04:37.412Z,16.83
2023-04-07T05:07:04.464Z,22.13
2023-04-07T05:09:31.445Z,19.42
2023-04-07T05:11:58.155Z,18.65
2023-04-07T05:14:24.668Z,18.75
2023-04-07T05:16:51.614Z,15.30
2023-04-07T05:19:18.119Z,18.75
2023-04-07T05:21:44.647Z,16.20
2023-04-07T05:24:11.201Z,10.40
2023-04-07T05:26:37.767Z,12.05
2023-04-07T05:29:04.364Z,15.38
2023-04-07T05:31:31.048Z,12.40
2023-04-07T05:33:57.638Z,15.73
2023-04-07T05:36:24.412Z,16.65
2023-04-07T05:38:51.625Z,18.65
2023-04-07T05:41:18.198Z,13.82
2023-04-07T05:43:44.750Z,15.68
2023-04-07T05:46:11.377Z,15.75
2023-04-07T05:48:38.005Z,13.38
2023-04-07T05:51:04.550Z,16.30
2023-04-07T05:53:31.345Z,14.57
2023-04-07T05:55:57.891Z,23.48
2023-04-07T05:58:24.408Z,21.05
2023-04-07T06:00:50.912Z,17.48
2023-04-07T06:03:17.731Z,16.55
2023-04-07T06:05:46.879Z,19.77
2023-04-07T06:08:13.521Z,15.68
2023-04-07T06:10:41.863Z,14.93
2023-04-07T06:13:08.424Z,23.52
2023-04-07T06:15:35.260Z,17.00
2023-04-07T06:18:01.842Z,24.55
2023-04-07T06:20:28.459Z,16.40
2023-04-07T06:22:55.275Z,19.00
2023-04-07T06:25:21.944Z,17.50
2023-04-07T06:27:48.537Z,18.40
2023-04-07T06:30:16.153Z,18.90
2023-04-07T06:32:42.779Z,18.52
2023-04-07T06:35:09.513Z,26.00
2023-04-07T06:37:36.654Z,17.60
2023-04-07T06:40:03.553Z,17.17
2023-04-07T06:42:30.789Z,20.42
2023-04-07T06:44:57.561Z,17.60
2023-04-07T06:47:24.289Z,21.00
2023-04-07T06:49:51.164Z,21.90
2023-04-07T06:52:17.753Z,18.60
2023-04-07T06:54:44.763Z,19.45
2023-04-07T06:57:12.268Z,18.88
2023-04-07T06:59:39.321Z,17.35
2023-04-07T07:02:07.708Z,25.85
2023-04-07T07:04:35.415Z,20.65
2023-04-07T07:07:03.283Z,18.65
2023-04-07T07:09:29.801Z,22.95
2023-04-07T07:11:56.353Z,21.35
2023-04-07T07:14:22.871Z,15.70
2023-04-07T07:16:49.381Z,17.30
2023-04-07T07:19:16.290Z,18.45
2023-04-07T07:21:42.804Z,17.75
2023-04-07T07:24:09.346Z,24.30
2023-04-07T07:26:36.013Z,24.02
2023-04-07T07:29:03.682Z,20.08
2023-04-07T07:31:31.508Z,17.63
2023-04-07T07:33:58.367Z,20.05
2023-04-07T07:36:25.197Z,18.70
2023-04-07T07:38:51.986Z,21.88
2023-04-07T07:41:18.568Z,19.83
2023-04-07T07:43:45.599Z,22.50
2023-04-07T07:46:12.423Z,20.30
2023-04-07T07:48:39.129Z,20.58
2023-04-07T07:51:06.008Z,20.90
2023-04-07T07:53:32.612Z,22.98
2023-04-07T07:55:59.359Z,15.88
2023-04-07T07:58:25.893Z,16.00
2023-04-07T08:00:52.426Z,15.60
2023-04-07T08:03:20.278Z,13.05
2023-04-07T08:05:48.741Z,17.35
2023-04-07T08:08:15.734Z,18.13
2023-04-07T08:10:42.275Z,13.48
2023-04-07T08:13:09.043Z,13.70
2023-04-07T08:15:35.964Z,15.32
2023-04-07T08:18:04.624Z,16.75
2023-04-07T08:20:31.953Z,18.98
2023-04-07T08:22:58.803Z,16.17
2023-04-07T08:25:25.760Z,14.63
2023-04-07T08:27:52.551Z,19.10
2023-04-07T08:30:21.120Z,13.50
2023-04-07T08:32:48.123Z,15.95
2023-04-07T08:35:14.727Z,16.55
2023-04-07T08:37:44.238Z,14.82
2023-04-07T08:40:11.903Z,12.02
2023-04-07T08:42:42.948Z,16.70
2023-04-07T08:45:10.067Z,17.92
2023-04-07T08:47:37.651Z,15.35
2023-04-07T08:50:09.973Z,14.93
2023-04-07T08:52:50.722Z,16.23
2023-04-07T08:55:17.375Z,14.43
2023-04-07T08:57:44.100Z,13.57
2023-04-07T09:00:11.644Z,15.80
2023-04-07T09:02:39.833Z,12.02
2023-04-07T09:05:08.592Z,5.22
2023-04-07T09:07:37.282Z,5.80
2023-04-07T09:10:04.939Z,11.15
2023-04-07T09:12:32.589Z,10.05
2023-04-07T09:14:59.562Z,8.52
2023-04-07T09:17:27.341Z,7.28
2023-04-07T09:19:58.619Z,6.53
2023-04-07T09:22:45.807Z,6.50
2023-04-07T09:25:24.082Z,12.80
2023-04-07T09:28:01.554Z,6.38
2023-04-07T09:30:29.946Z,6.40
2023-04-07T09:32:57.661Z,7.85
2023-04-07T09:35:24.858Z,3.97
2023-04-07T09:38:07.779Z,8.20
2023-04-07T09:40:34.978Z,6.28
2023-04-07T09:43:03.129Z,3.85
2023-04-07T09:45:37.157Z,7.57
2023-04-07T09:48:21.115Z,9.38
2023-04-07T09:50:49.610Z,10.65
2023-04-07T09:53:17.113Z,3.20
2023-04-07T09:55:44.375Z,6.65
2023-04-07T09:58:17.170Z,6.70
2023-04-07T10:00:44.341Z,6.15
2023-04-07T10:03:11.266Z,5.95
2023-04-07T10:05:39.280Z,4.88
2023-04-07T10:08:10.119Z,5.80
2023-04-07T10:10:37.110Z,7.13
2023-04-07T10:13:06.561Z,8.32
2023-04-07T10:15:33.420Z,8.15
2023-04-07T10:18:00.909Z,5.57
2023-04-07T10:20:29.124Z,6.15
2023-04-07T10:23:02.555Z,8.13
2023-04-07T10:25:29.762Z,6.38
2023-04-07T10:28:16.330Z,4.85
2023-04-07T10:30:43.639Z,5.03
2023-04-07T10:33:10.598Z,4.53
2023-04-07T10:36:08.623Z,3.58
2023-04-07T10:38:35.552Z,2.78
2023-04-07T10:41:37.314Z,4.18
2023-04-07T10:44:04.724Z,5.85
2023-04-07T10:47:02.588Z,7.65
2023-04-07T10:49:29.116Z,9.10
2023-04-07T10:52:14.867Z,5.75
2023-04-07T10:54:41.590Z,5.18
2023-04-07T10:57:10.161Z,7.70
2023-04-07T10:59:38.129Z,8.68
2023-04-07T11:02:30.964Z,5.07
2023-04-07T11:04:57.734Z,4.20
2023-04-07T11:07:44.194Z,5.78
2023-04-07T11:10:16.007Z,7.03
2023-04-07T11:12:43.877Z,8.40
2023-04-07T11:15:22.077Z,6.75
2023-04-07T11:18:27.075Z,9.98
2023-04-07T11:20:57.573Z,5.60
2023-04-07T11:23:28.510Z,5.35
2023-04-07T11:26:02.869Z,4.63
2023-04-07T11:28:30.018Z,6.60
2023-04-07T11:30:58.256Z,6.90
2023-04-07T11:33:28.145Z,14.15
2023-04-07T11:35:57.765Z,12.13
2023-04-07T11:38:27.419Z,11.60
2023-04-07T11:40:55.549Z,12.07
2023-04-07T11:43:27.166Z,10.45
2023-04-07T11:46:17.650Z,9.60
2023-04-07T11:48:45.721Z,9.65
2023-04-07T11:51:21.158Z,8.45
2023-04-07T11:53:48.113Z,8.18
2023-04-07T11:56:17.502Z,8.93
2023-04-07T11:59:03.007Z,11.05
2023-04-07T12:01:42.029Z,12.43
2023-04-07T12:04:13.912Z,11.23
2023-04-07T12:09:27.375Z,17.50
2023-04-07T12:11:53.989Z,12.88
2023-04-07T12:14:20.539Z,13.75
2023-04-07T12:16:47.125Z,14.95
2023-04-07T12:19:13.661Z,12.32
2023-04-07T12:21:40.312Z,14.02
2023-04-07T12:24:06.934Z,11.15
2023-04-07T12:26:33.570Z,8.32
2023-04-07T12:29:05.186Z,6.43
2023-04-07T12:31:32.961Z,4.38
2023-04-07T12:33:59.723Z,6.57
2023-04-07T12:36:27.710Z,8.25
2023-04-07T12:38:54.770Z,11.07
2023-04-07T12:41:21.337Z,9.18
2023-04-07T12:43:48.621Z,10.10
2023-04-07T12:46:15.675Z,8.75
2023-04-07T12:48:42.314Z,9.57
2023-04-07T12:51:08.923Z,7.13
2023-04-07T12:53:35.506Z,12.82
2023-04-07T12:56:02.466Z,8.70
2023-04-07T12:58:29.220Z,6.55
2023-04-07T13:00:56.767Z,6.72
2023-04-07T13:03:23.739Z,9.35
2023-04-07T13:05:50.676Z,9.45
2023-04-07T13:08:17.250Z,10.43
2023-04-07T13:10:43.828Z,12.00
2023-04-07T13:13:10.413Z,10.82
2023-04-07T13:15:37.029Z,12.80
2023-04-07T13:18:03.888Z,12.95
2023-04-07T13:20:30.543Z,15.02
2023-04-07T13:23:07.868Z,13.45
2023-04-07T13:25:37.557Z,14.57
2023-04-07T13:28:04.450Z,14.60
2023-04-07T13:30:31.166Z,15.02
2023-04-07T13:32:58.085Z,15.43
2023-04-07T13:35:24.864Z,12.23
2023-04-07T13:37:51.397Z,15.93
2023-04-07T13:40:18.196Z,15.82
2023-04-07T13:42:44.797Z,10.77
2023-04-07T13:45:11.442Z,16.73
2023-04-07T13:47:38.691Z,13.43
2023-04-07T13:50:05.759Z,13.02
2023-04-07T13:52:35.183Z,10.10
2023-04-07T13:55:03.794Z,13.88
2023-04-07T13:57:30.463Z,9.52
2023-04-07T13:59:57.184Z,10.18
2023-04-07T14:02:24.949Z,8.10
2023-04-07T14:04:51.980Z,11.52
2023-04-07T14:07:18.600Z,7.90
2023-04-07T14:09:46.229Z,6.65
2023-04-07T14:12:12.757Z,8.23
2023-04-07T14:14:39.461Z,6.43
2023-04-07T14:17:06.659Z,5.60
2023-04-07T14:19:33.597Z,9.20
2023-04-07T14:22:00.381Z,6.88
2023-04-07T14:24:27.197Z,8.05
2023-04-07T14:26:54.684Z,5.15
2023-04-07T14:29:22.300Z,8.20
2023-04-07T14:31:48.890Z,10.23
2023-04-07T14:34:15.659Z,6.80
2023-04-07T14:36:42.984Z,6.43
2023-04-07T14:39:09.450Z,5.57
2023-04-07T14:41:36.039Z,5.22
2023-04-07T14:44:03.036Z,4.40
2023-04-07T14:46:29.642Z,5.57
2023-04-07T14:48:58.403Z,5.43
2023-04-07T14:51:25.121Z,3.53
2023-04-07T14:53:55.916Z,3.85
2023-04-07T14:56:22.833Z,3.60
2023-04-07T14:58:49.418Z,4.63
2023-04-07T15:01:16.961Z,3.30
2023-04-07T15:03:44.608Z,3.80
2023-04-07T15:06:12.243Z,4.97
2023-04-07T15:08:38.856Z,6.30
2023-04-07T15:11:08.842Z,3.83
2023-04-07T15:13:36.291Z,4.18
2023-04-07T15:16:13.285Z,5.55
2023-04-07T15:18:42.504Z,5.25
2023-04-07T15:21:10.015Z,3.88
2023-04-07T15:23:40.467Z,6.35
2023-04-07T15:26:07.345Z,7.78
2023-04-07T15:28:34.109Z,5.97
2023-04-07T15:31:01.434Z,5.80
2023-04-07T15:33:28.094Z,5.18
2023-04-07T15:35:54.699Z,5.72
2023-04-07T15:38:21.406Z,6.03
2023-04-07T15:40:47.957Z,5.55
2023-04-07T15:43:14.621Z,8.90
2023-04-07T15:45:44.899Z,5.65
2023-04-07T15:48:12.529Z,7.35
2023-04-07T15:50:39.564Z,5.38
2023-04-07T15:53:06.763Z,5.30
2023-04-07T15:55:34.123Z,6.32
2023-04-07T15:58:01.966Z,6.93
2023-04-07T16:00:29.707Z,8.13
2023-04-07T16:02:56.358Z,5.63
2023-04-07T16:05:23.026Z,5.70
2023-04-07T16:07:49.713Z,6.88
2023-04-07T16:10:19.702Z,4.93
2023-04-07T16:12:47.151Z,4.25
2023-04-07T16:15:15.508Z,4.80
2023-04-07T16:17:46.187Z,7.75
2023-04-07T16:20:16.048Z,3.50
2023-04-07T16:22:48.133Z,4.78
2023-04-07T16:27:42.458Z,4.50
2023-04-07T16:30:09.521Z,8.98
2023-04-07T16:32:36.070Z,8.13
2023-04-07T16:35:03.274Z,5.63
2023-04-07T16:37:30.481Z,4.85
2023-04-07T16:39:57.832Z,5.10
2023-04-07T16:42:26.420Z,6.47
2023-04-07T16:44:52.996Z,6.47
2023-04-07T16:47:19.669Z,4.38
2023-04-07T16:49:46.429Z,5.00
2023-04-07T16:52:13.017Z,3.88
2023-04-07T16:54:39.587Z,6.22
2023-04-07T16:57:06.216Z,4.80
2023-04-07T16:59:32.808Z,4.65
2023-04-07T17:01:59.439Z,5.90
2023-04-07T17:04:26.168Z,8.43
2023-04-07T17:06:52.720Z,9.15
2023-04-07T17:09:20.005Z,5.22
2023-04-07T17:11:46.547Z,5.43
2023-04-07T17:14:13.166Z,7.15
2023-04-07T17:16:39.710Z,7.30
2023-04-07T17:19:06.327Z,5.97
2023-04-07T17:21:32.889Z,8.10
2023-04-07T17:23:59.417Z,4.85
2023-04-07T17:26:26.163Z,5.00
2023-04-07T17:28:52.745Z,7.07
2023-04-07T17:31:19.332Z,4.35
2023-04-07T17:33:47.680Z,4.25
2023-04-07T17:36:14.579Z,5.53
2023-04-07T17:38:41.348Z,6.97
2023-04-07T17:41:07.896Z,8.38
2023-04-07T17:43:34.473Z,10.30
2023-04-07T17:46:01.503Z,8.18
2023-04-07T17:48:28.053Z,13.45
2023-04-07T17:50:54.576Z,7.45
2023-04-07T17:53:21.161Z,12.68
2023-04-07T17:55:47.715Z,7.53
2023-04-07T17:58:14.612Z,8.73
2023-04-07T18:00:41.372Z,7.63
2023-04-07T18:03:08.280Z,6.30
2023-04-07T18:05:35.906Z,6.97
2023-04-07T18:08:02.583Z,6.68
2023-04-07T18:10:29.336Z,4.93
2023-04-07T18:12:56.194Z,5.63
2023-04-07T18:15:22.738Z,9.65
2023-04-07T18:17:53.026Z,7.40
2023-04-07T18:20:19.982Z,6.43
2023-04-07T18:22:47.408Z,4.25
2023-04-07T18:25:14.065Z,5.00
2023-04-07T18:27:40.635Z,7.93
2023-04-07T18:30:08.152Z,7.90
2023-04-07T18:32:34.706Z,5.10
2023-04-07T18:35:01.341Z,6.50
2023-04-07T18:37:29.582Z,4.65
2023-04-07T18:39:56.245Z,6.40
2023-04-07T18:42:22.810Z,5.70
2023-04-07T18:44:49.339Z,6.32
2023-04-07T18:47:16.066Z,7.10
2023-04-07T18:49:42.646Z,3.35
2023-04-07T18:52:09.550Z,7.35
2023-04-07T18:54:36.294Z,6.25
2023-04-07T18:57:03.061Z,5.28
2023-04-07T18:59:29.704Z,4.65
2023-04-07T19:01:56.816Z,6.47
2023-04-07T19:04:24.952Z,8.82
2023-04-07T19:06:52.068Z,9.32
2023-04-07T19:09:18.603Z,6.30
2023-04-07T19:11:45.433Z,6.35
2023-04-07T19:14:12.883Z,4.85
2023-04-07T19:16:39.754Z,5.22
2023-04-07T19:19:06.378Z,11.82
2023-04-07T19:21:32.957Z,9.10
2023-04-07T19:23:59.912Z,5.00
2023-04-07T19:26:27.905Z,6.80
2023-04-07T19:28:55.938Z,5.78
2023-04-07T19:31:23.318Z,7.47
2023-04-07T19:33:50.041Z,7.53
2023-04-07T19:36:16.888Z,7.03
2023-04-07T19:38:43.483Z,7.05
2023-04-07T19:41:10.399Z,8.95
2023-04-07T19:43:36.931Z,6.10
2023-04-07T19:46:03.840Z,6.20
2023-04-07T19:48:30.650Z,7.22
2023-04-07T19:50:57.273Z,10.35
2023-04-07T19:53:25.415Z,8.75
2023-04-07T19:55:52.161Z,8.40
2023-04-07T19:58:21.020Z,5.75
2023-04-07T20:00:50.743Z,8.40
2023-04-07T20:03:19.820Z,7.93
2023-04-07T20:05:46.447Z,7.85
2023-04-07T20:08:13.002Z,11.13
2023-04-07T20:10:39.550Z,8.10
2023-04-07T20:13:06.529Z,9.40
2023-04-07T20:15:33.110Z,8.10
2023-04-07T20:18:00.207Z,8.55
2023-04-07T20:20:26.903Z,6.97
2023-04-07T20:22:53.458Z,8.30
2023-04-07T20:25:20.138Z,8.25
2023-04-07T20:27:49.121Z,12.38
2023-04-07T20:30:16.357Z,11.07
2023-04-07T20:32:43.534Z,7.95
2023-04-07T20:35:12.050Z,10.50
2023-04-07T20:37:38.682Z,11.05
2023-04-07T20:40:06.377Z,8.88
2023-04-07T20:42:32.950Z,11.80
2023-04-07T20:45:03.814Z,10.82
2023-04-07T20:47:31.371Z,13.00
2023-04-07T20:49:58.761Z,11.27
2023-04-07T20:52:27.049Z,13.18
2023-04-07T20:54:53.666Z,9.02
2023-04-07T20:57:20.199Z,10.18
2023-04-07T20:59:46.747Z,8.27
2023-04-07T21:02:13.357Z,11.85
2023-04-07T21:04:40.026Z,9.02
2023-04-07T21:07:06.566Z,9.18
2023-04-07T21:09:33.153Z,8.73
2023-04-07T21:12:02.101Z,9.65
2023-04-07T21:14:28.713Z,13.77
2023-04-07T21:16:55.262Z,12.52
2023-04-07T21:19:22.268Z,18.15
2023-04-07T21:21:48.811Z,7.40
2023-04-07T21:24:15.437Z,10.90
2023-04-07T21:26:41.974Z,11.15
2023-04-07T21:29:08.515Z,12.38
2023-04-07T21:31:35.226Z,9.98
2023-04-07T21:34:01.896Z,12.18
2023-04-07T21:36:28.556Z,9.90
2023-04-07T21:38:55.078Z,11.88
2023-04-07T21:41:21.964Z,12.23
2023-04-07T21:43:48.457Z,10.88
2023-04-07T21:46:16.669Z,14.95
2023-04-07T21:48:43.322Z,13.13
2023-04-07T21:51:09.867Z,11.95
2023-04-07T21:53:36.499Z,12.85
2023-04-07T21:56:03.329Z,12.82
2023-04-07T21:58:30.059Z,13.65
2023-04-07T22:00:56.633Z,14.20
2023-04-07T22:03:23.682Z,18.23
2023-04-07T22:05:50.508Z,19.17
2023-04-07T22:08:17.952Z,23.38
2023-04-07T22:10:44.492Z,17.55
2023-04-07T22:13:11.121Z,19.50
2023-04-07T22:15:37.752Z,16.55
2023-04-07T22:18:04.895Z,19.02
2023-04-07T22:20:31.502Z,21.42
2023-04-07T22:22:58.216Z,18.75
2023-04-07T22:25:25.557Z,15.77
2023-04-07T22:27:52.636Z,22.17
2023-04-07T22:30:20.520Z,16.88
2023-04-07T22:32:48.056Z,16.02
2023-04-07T22:35:14.864Z,20.65
2023-04-07T22:37:41.386Z,17.98
2023-04-07T22:40:09.425Z,22.30
2023-04-07T22:42:36.186Z,20.92
2023-04-07T22:45:02.998Z,20.40
2023-04-07T22:47:29.542Z,20.13
2023-04-07T22:49:56.495Z,22.80
2023-04-07T22:52:23.341Z,19.45
2023-04-07T22:54:49.898Z,23.05
2023-04-07T22:57:16.657Z,19.70
2023-04-07T22:59:43.168Z,26.40
2023-04-07T23:02:09.844Z,22.50
2023-04-07T23:04:36.637Z,23.98
2023-04-07T23:07:03.129Z,20.50
2023-04-07T23:09:29.627Z,22.75
2023-04-07T23:11:57.030Z,19.85
2023-04-07T23:14:23.657Z,26.67
2023-04-07T23:16:51.177Z,29.33
2023-04-07T23:19:17.805Z,24.65
2023-04-07T23:21:44.341Z,26.90
2023-04-07T23:24:11.170Z,28.00
2023-04-07T23:26:37.887Z,26.88
2023-04-07T23:29:04.588Z,29.95
2023-04-07T23:31:31.641Z,25.67
2023-04-07T23:33:59.742Z,33.63
2023-04-07T23:36:27.166Z,35.53
2023-04-07T23:38:55.977Z,28.17
2023-04-07T23:41:23.360Z,31.73
2023-04-07T23:43:50.037Z,29.60
2023-04-07T23:46:16.639Z,32.90
2023-04-07T23:48:43.165Z,28.20
2023-04-07T23:51:09.736Z,32.20
2023-04-07T23:53:36.372Z,29.40
2023-04-07T23:56:02.895Z,31.02
2023-04-07T23:58:29.435Z,28.40
